createdAt,value
2017-10-02T00:01:34.350Z,12.43
2017-10-02T00:04:01.743Z,12.49
2017-10-02T00:06:29.125Z,12.53
2017-10-02T00:08:56.517Z,12.51
2017-10-02T00:11:23.911Z,12.49
2017-10-02T00:13:51.318Z,12.68
2017-10-02T00:16:18.714Z,12.66
2017-10-02T00:18:46.198Z,12.52
2017-10-02T00:21:13.653Z,12.66
2017-10-02T00:23:41.046Z,12.57
2017-10-02T00:26:08.438Z,12.59
2017-10-02T00:28:35.826Z,12.65
2017-10-02T00:31:03.222Z,12.68
2017-10-02T00:33:30.606Z,12.64
2017-10-02T00:35:58.002Z,12.54
2017-10-02T00:38:25.392Z,12.62
2017-10-02T00:40:52.782Z,12.61
2017-10-02T00:43:20.178Z,12.73
2017-10-02T00:45:47.577Z,12.69
2017-10-02T00:48:14.965Z,12.75
2017-10-02T00:50:42.427Z,12.73
2017-10-02T00:53:09.818Z,12.81
2017-10-02T00:55:37.207Z,12.75
2017-10-02T00:58:04.604Z,12.76
2017-10-02T01:00:31.991Z,12.87
2017-10-02T01:02:59.382Z,12.81
2017-10-02T01:05:26.762Z,12.82
2017-10-02T01:07:54.166Z,12.84
2017-10-02T01:10:21.562Z,12.84
2017-10-02T01:12:48.965Z,12.77
2017-10-02T01:15:16.342Z,12.75
2017-10-02T01:17:43.744Z,12.75
2017-10-02T01:20:11.130Z,12.72
2017-10-02T01:22:38.531Z,12.76
2017-10-02T01:25:05.925Z,12.75
2017-10-02T01:27:33.315Z,12.77
2017-10-02T01:30:00.716Z,12.75
2017-10-02T01:32:28.118Z,12.82
2017-10-02T01:34:55.514Z,12.88
2017-10-02T01:37:22.974Z,12.87
2017-10-02T01:39:50.430Z,12.83
2017-10-02T01:42:17.823Z,12.96
2017-10-02T01:44:45.242Z,13.07
2017-10-02T01:47:12.699Z,13.19
2017-10-02T01:49:40.094Z,13.22
2017-10-02T01:52:07.477Z,13.26
2017-10-02T01:54:34.865Z,13.29
2017-10-02T01:57:02.254Z,13.27
2017-10-02T01:59:30.322Z,13.26
2017-10-02T02:01:57.755Z,13.32
2017-10-02T02:04:25.202Z,13.26
2017-10-02T02:06:52.586Z,13.26
2017-10-02T02:09:19.983Z,13.18
2017-10-02T02:11:47.365Z,13.38
2017-10-02T02:14:14.761Z,13.44
2017-10-02T02:16:42.147Z,13.71
2017-10-02T02:19:09.540Z,13.50
2017-10-02T02:21:36.922Z,13.56
2017-10-02T02:24:04.316Z,13.55
2017-10-02T02:26:31.703Z,13.51
2017-10-02T02:28:59.145Z,13.68
2017-10-02T02:31:26.535Z,13.69
2017-10-02T02:33:53.967Z,13.64
2017-10-02T02:36:21.349Z,13.61
2017-10-02T02:38:48.735Z,13.49
2017-10-02T02:41:16.236Z,13.54
2017-10-02T02:43:43.614Z,13.52
2017-10-02T02:46:11.010Z,13.58
2017-10-02T02:48:38.498Z,13.39
2017-10-02T02:51:05.882Z,13.44
2017-10-02T02:53:33.266Z,13.62
2017-10-02T02:56:00.763Z,13.64
2017-10-02T02:58:28.154Z,13.55
2017-10-02T03:00:55.548Z,13.55
2017-10-02T03:03:22.930Z,13.52
2017-10-02T03:05:50.326Z,13.74
2017-10-02T03:08:17.710Z,13.65
2017-10-02T03:10:45.116Z,13.61
2017-10-02T03:13:12.499Z,13.66
2017-10-02T03:15:39.891Z,13.73
2017-10-02T03:18:07.276Z,13.77
2017-10-02T03:20:34.673Z,13.74
2017-10-02T03:23:02.074Z,13.83
2017-10-02T03:25:29.463Z,13.80
2017-10-02T03:27:56.849Z,13.87
2017-10-02T03:30:24.250Z,13.71
2017-10-02T03:32:54.562Z,13.64
2017-10-02T03:35:21.951Z,13.65
2017-10-02T03:37:49.346Z,13.71
2017-10-02T03:40:16.743Z,13.61
2017-10-02T03:42:44.139Z,13.58
2017-10-02T03:45:11.530Z,13.55
2017-10-02T03:47:38.935Z,13.57
2017-10-02T03:50:06.318Z,13.48
2017-10-02T03:52:33.719Z,13.42
2017-10-02T03:55:01.116Z,13.31
2017-10-02T03:57:28.515Z,13.46
2017-10-02T03:59:55.898Z,13.39
2017-10-02T04:02:23.301Z,13.33
2017-10-02T04:04:50.686Z,13.43
2017-10-02T04:07:18.075Z,13.39
2017-10-02T04:09:45.463Z,13.39
2017-10-02T04:12:12.885Z,13.17
2017-10-02T04:14:40.275Z,13.39
2017-10-02T04:17:07.671Z,13.30
2017-10-02T04:19:35.056Z,13.29
2017-10-02T04:22:02.439Z,13.27
2017-10-02T04:24:29.841Z,13.15
2017-10-02T04:26:57.278Z,13.04
2017-10-02T04:29:24.674Z,12.99
2017-10-02T04:31:52.063Z,12.88
2017-10-02T04:34:19.446Z,12.78
2017-10-02T04:36:46.830Z,12.83
2017-10-02T04:39:14.223Z,12.76
2017-10-02T04:41:41.608Z,12.58
2017-10-02T04:44:09.011Z,12.68
2017-10-02T04:46:36.422Z,12.70
2017-10-02T04:49:03.827Z,12.81
2017-10-02T04:51:31.246Z,12.83
2017-10-02T04:53:58.633Z,12.71
2017-10-02T04:56:26.014Z,12.55
2017-10-02T04:58:53.414Z,12.59
2017-10-02T05:01:20.854Z,12.58
2017-10-02T05:03:48.326Z,12.55
2017-10-02T05:06:15.698Z,12.66
2017-10-02T05:08:43.086Z,12.70
2017-10-02T05:11:10.491Z,12.64
2017-10-02T05:13:37.875Z,12.71
2017-10-02T05:16:05.287Z,12.80
2017-10-02T05:18:32.674Z,12.85
2017-10-02T05:21:00.086Z,12.82
2017-10-02T05:23:27.470Z,12.86
2017-10-02T05:25:54.871Z,12.81
2017-10-02T05:28:22.254Z,12.89
2017-10-02T05:30:49.719Z,12.76
2017-10-02T05:33:17.112Z,12.64
2017-10-02T05:35:44.510Z,12.67
2017-10-02T05:38:11.896Z,12.64
2017-10-02T05:40:39.298Z,12.68
2017-10-02T05:43:06.690Z,12.92
2017-10-02T05:45:34.146Z,12.88
2017-10-02T05:48:01.539Z,12.74
2017-10-02T05:50:28.977Z,12.69
2017-10-02T05:52:56.350Z,12.59
2017-10-02T05:55:23.759Z,12.72
2017-10-02T05:57:51.158Z,12.70
2017-10-02T06:00:18.550Z,12.72
2017-10-02T06:02:46.037Z,12.58
2017-10-02T06:05:13.431Z,12.67
2017-10-02T06:07:40.846Z,12.76
2017-10-02T06:10:08.303Z,12.67
2017-10-02T06:12:35.705Z,12.66
2017-10-02T06:15:03.094Z,12.55
2017-10-02T06:17:30.498Z,12.59
2017-10-02T06:19:57.893Z,12.66
2017-10-02T06:22:25.295Z,12.76
2017-10-02T06:24:52.679Z,12.82
2017-10-02T06:27:20.079Z,12.75
2017-10-02T06:29:47.475Z,12.90
2017-10-02T06:32:14.878Z,12.95
2017-10-02T06:34:42.276Z,12.89
2017-10-02T06:37:09.737Z,12.82
2017-10-02T06:39:37.114Z,12.83
2017-10-02T06:42:04.514Z,12.87
2017-10-02T06:44:31.901Z,12.90
2017-10-02T06:46:59.298Z,13.01
2017-10-02T06:49:26.689Z,12.96
2017-10-02T06:51:54.082Z,13.04
2017-10-02T06:54:21.479Z,12.96
2017-10-02T06:56:48.898Z,13.12
2017-10-02T06:59:16.282Z,13.11
2017-10-02T07:01:43.673Z,13.16
2017-10-02T07:04:11.222Z,13.04
2017-10-02T07:06:38.619Z,13.26
2017-10-02T07:09:06.012Z,13.30
2017-10-02T07:11:33.408Z,13.36
2017-10-02T07:14:00.811Z,13.34
2017-10-02T07:16:28.201Z,13.27
2017-10-02T07:18:55.662Z,13.15
2017-10-02T07:21:23.114Z,13.28
2017-10-02T07:23:50.506Z,13.35
2017-10-02T07:26:17.894Z,13.51
2017-10-02T07:28:45.289Z,13.50
2017-10-02T07:31:12.687Z,13.40
2017-10-02T07:33:40.198Z,13.37
2017-10-02T07:36:07.586Z,13.60
2017-10-02T07:38:34.980Z,13.61
2017-10-02T07:41:02.385Z,13.62
2017-10-02T07:43:29.771Z,13.65
2017-10-02T07:45:57.170Z,13.76
2017-10-02T07:48:24.550Z,13.82
2017-10-02T07:50:51.978Z,13.88
2017-10-02T07:53:19.362Z,13.91
2017-10-02T07:55:46.759Z,13.99
2017-10-02T07:58:14.150Z,13.89
2017-10-02T08:00:41.566Z,13.84
2017-10-02T08:03:08.958Z,14.01
2017-10-02T08:05:36.380Z,13.97
2017-10-02T08:08:03.762Z,14.06
2017-10-02T08:10:31.162Z,14.06
2017-10-02T08:12:58.555Z,14.13
2017-10-02T08:15:25.951Z,13.88
2017-10-02T08:17:53.343Z,13.99
2017-10-02T08:20:20.736Z,13.88
2017-10-02T08:22:48.127Z,13.94
2017-10-02T08:25:15.530Z,14.00
2017-10-02T08:27:42.914Z,14.05
2017-10-02T08:30:10.307Z,14.08
2017-10-02T08:32:37.718Z,14.02
2017-10-02T08:35:05.100Z,14.18
2017-10-02T08:37:32.503Z,14.21
2017-10-02T08:39:59.890Z,14.22
2017-10-02T08:42:27.283Z,14.21
2017-10-02T08:44:54.679Z,14.32
2017-10-02T08:47:22.071Z,14.47
2017-10-02T08:49:49.458Z,14.58
2017-10-02T08:52:16.856Z,14.50
2017-10-02T08:54:44.239Z,14.56
2017-10-02T08:57:11.631Z,14.56
2017-10-02T08:59:39.018Z,14.63
2017-10-02T09:02:06.582Z,14.63
2017-10-02T09:04:33.990Z,14.59
2017-10-02T09:07:01.382Z,14.61
2017-10-02T09:09:28.768Z,14.67
2017-10-02T09:11:56.162Z,14.77
2017-10-02T09:14:23.551Z,14.81
2017-10-02T09:16:50.940Z,14.80
2017-10-02T09:19:18.322Z,14.96
2017-10-02T09:21:45.712Z,14.87
2017-10-02T09:24:13.185Z,15.09
2017-10-02T09:26:40.566Z,15.01
2017-10-02T09:29:07.964Z,14.90
2017-10-02T09:31:35.359Z,14.92
2017-10-02T09:34:02.751Z,14.98
2017-10-02T09:36:30.139Z,15.02
2017-10-02T09:38:57.536Z,15.06
2017-10-02T09:41:24.922Z,15.16
2017-10-02T09:43:52.314Z,15.08
2017-10-02T09:46:19.700Z,15.26
2017-10-02T09:48:47.107Z,15.45
2017-10-02T09:51:14.495Z,15.62
2017-10-02T09:53:41.935Z,15.74
2017-10-02T09:56:09.318Z,15.75
2017-10-02T09:58:36.752Z,15.80
2017-10-02T10:01:04.133Z,15.73
2017-10-02T10:03:31.647Z,15.83
2017-10-02T10:05:59.034Z,15.93
2017-10-02T10:08:26.486Z,16.01
2017-10-02T10:10:53.878Z,16.07
2017-10-02T10:13:21.266Z,16.24
2017-10-02T10:15:48.818Z,16.18
2017-10-02T10:18:16.319Z,16.30
2017-10-02T10:20:43.706Z,16.41
2017-10-02T10:23:11.094Z,16.31
2017-10-02T10:25:38.496Z,16.34
2017-10-02T10:28:05.879Z,16.31
2017-10-02T10:30:33.273Z,16.46
2017-10-02T10:33:00.667Z,16.55
2017-10-02T10:35:28.068Z,16.54
2017-10-02T10:37:55.554Z,16.66
2017-10-02T10:40:23.018Z,16.78
2017-10-02T10:42:50.402Z,16.52
2017-10-02T10:45:17.798Z,16.65
2017-10-02T10:47:45.192Z,16.88
2017-10-02T10:50:12.582Z,16.88
2017-10-02T10:52:39.974Z,16.86
2017-10-02T10:55:07.450Z,16.78
2017-10-02T10:57:34.838Z,16.91
2017-10-02T11:00:02.238Z,16.94
2017-10-02T11:02:29.628Z,17.11
2017-10-02T11:04:57.125Z,17.04
2017-10-02T11:07:24.696Z,17.08
2017-10-02T11:09:52.106Z,17.17
2017-10-02T11:12:19.490Z,17.40
2017-10-02T11:14:46.950Z,17.40
2017-10-02T11:17:14.344Z,17.49
2017-10-02T11:19:41.734Z,17.54
2017-10-02T11:22:09.122Z,17.77
2017-10-02T11:24:36.561Z,18.03
2017-10-02T11:27:03.950Z,18.38
2017-10-02T11:29:31.377Z,18.60
2017-10-02T11:31:58.840Z,18.80
2017-10-02T11:34:26.242Z,18.88
2017-10-02T11:36:53.630Z,19.02
2017-10-02T11:39:21.031Z,19.26
2017-10-02T11:41:48.429Z,19.62
2017-10-02T11:44:15.914Z,19.69
2017-10-02T11:46:43.321Z,19.96
2017-10-02T11:49:10.712Z,20.00
2017-10-02T11:51:38.118Z,20.14
2017-10-02T11:54:05.514Z,20.04
2017-10-02T11:56:32.994Z,19.77
2017-10-02T11:59:00.390Z,19.66
2017-10-02T12:01:27.778Z,19.61
2017-10-02T12:03:55.182Z,19.24
2017-10-02T12:06:22.571Z,19.03
2017-10-02T12:08:50.075Z,18.79
2017-10-02T12:11:17.471Z,18.67
2017-10-02T12:13:44.862Z,18.79
2017-10-02T12:16:12.312Z,18.93
2017-10-02T12:21:13.462Z,18.86
2017-10-02T12:23:40.867Z,18.56
2017-10-02T12:26:08.325Z,18.32
2017-10-02T12:28:35.721Z,18.13
2017-10-02T12:31:03.102Z,18.14
2017-10-02T12:33:30.498Z,18.14
2017-10-02T12:35:57.890Z,18.04
2017-10-02T12:38:25.286Z,18.28
2017-10-02T12:40:52.678Z,18.02
2017-10-02T12:43:20.079Z,17.66
2017-10-02T12:45:47.562Z,17.68
2017-10-02T12:48:14.958Z,17.72
2017-10-02T12:50:42.353Z,17.63
2017-10-02T12:53:09.749Z,17.78
2017-10-02T12:55:37.143Z,17.92
2017-10-02T12:58:04.641Z,17.70
2017-10-02T13:00:32.038Z,17.74
2017-10-02T13:02:59.451Z,17.99
2017-10-02T13:05:26.837Z,18.04
2017-10-02T13:07:54.226Z,17.99
2017-10-02T13:10:21.630Z,18.00
2017-10-02T13:12:49.078Z,18.33
2017-10-02T13:15:16.476Z,18.43
2017-10-02T13:17:43.864Z,18.44
2017-10-02T13:20:11.268Z,18.85
2017-10-02T13:22:38.654Z,18.97
2017-10-02T13:25:06.055Z,18.92
2017-10-02T13:27:33.446Z,19.10
2017-10-02T13:30:00.843Z,19.43
2017-10-02T13:32:28.226Z,19.54
2017-10-02T13:34:55.622Z,19.88
2017-10-02T13:37:23.006Z,19.67
2017-10-02T13:39:50.494Z,19.54
2017-10-02T13:42:17.886Z,19.66
2017-10-02T13:44:45.278Z,19.17
2017-10-02T13:47:12.676Z,19.07
2017-10-02T13:49:40.067Z,19.18
2017-10-02T13:52:07.462Z,19.33
2017-10-02T13:54:34.851Z,19.10
2017-10-02T13:57:02.260Z,19.00
2017-10-02T13:59:30.272Z,18.74
2017-10-02T14:01:57.677Z,19.06
2017-10-02T14:04:25.062Z,19.28
2017-10-02T14:06:52.462Z,19.24
2017-10-02T14:09:19.854Z,19.12
2017-10-02T14:11:47.258Z,19.23
2017-10-02T14:14:14.646Z,19.48
2017-10-02T14:16:42.038Z,19.41
2017-10-02T14:19:09.426Z,19.44
2017-10-02T14:21:36.830Z,19.58
2017-10-02T14:24:04.223Z,19.48
2017-10-02T14:26:31.610Z,19.58
2017-10-02T14:28:59.082Z,19.62
2017-10-02T14:31:26.530Z,19.71
2017-10-02T14:33:53.930Z,19.70
2017-10-02T14:36:21.318Z,19.72
2017-10-02T14:38:48.728Z,19.44
2017-10-02T14:41:16.119Z,19.55
2017-10-02T14:43:43.516Z,19.68
2017-10-02T14:46:10.902Z,19.31
2017-10-02T14:48:38.299Z,19.25
2017-10-02T14:51:05.687Z,19.10
2017-10-02T14:53:33.084Z,18.91
2017-10-02T14:56:00.474Z,18.87
2017-10-02T14:58:27.874Z,18.84
2017-10-02T15:00:55.266Z,19.07
2017-10-02T15:03:22.774Z,18.91
2017-10-02T15:05:50.210Z,18.88
2017-10-02T15:08:17.606Z,19.03
2017-10-02T15:10:44.994Z,19.09
2017-10-02T15:13:12.434Z,18.79
2017-10-02T15:15:39.818Z,18.89
2017-10-02T15:18:07.216Z,18.84
2017-10-02T15:20:34.699Z,18.54
2017-10-02T15:23:02.158Z,18.82
2017-10-02T15:25:29.610Z,18.77
2017-10-02T15:27:57.015Z,18.89
2017-10-02T15:30:24.407Z,18.94
2017-10-02T15:32:51.803Z,18.97
2017-10-02T15:35:19.198Z,19.15
2017-10-02T15:37:46.698Z,19.08
2017-10-02T15:40:14.090Z,19.30
2017-10-02T15:42:41.480Z,19.44
2017-10-02T15:45:08.894Z,19.30
2017-10-02T15:47:36.270Z,18.91
2017-10-02T15:50:03.666Z,18.60
2017-10-02T15:52:31.137Z,18.47
2017-10-02T15:54:58.527Z,18.71
2017-10-02T15:57:25.915Z,18.59
2017-10-02T15:59:53.400Z,18.44
2017-10-02T16:02:20.796Z,18.35
2017-10-02T16:04:48.203Z,18.76
2017-10-02T16:07:15.589Z,18.59
2017-10-02T16:09:42.974Z,18.64
2017-10-02T16:12:10.370Z,18.60
2017-10-02T16:14:37.762Z,18.62
2017-10-02T16:17:05.158Z,18.73
2017-10-02T16:19:32.546Z,18.63
2017-10-02T16:21:59.975Z,18.66
2017-10-02T16:24:27.420Z,18.70
2017-10-02T16:26:54.811Z,18.56
2017-10-02T16:29:22.218Z,18.57
2017-10-02T16:31:49.618Z,18.75
2017-10-02T16:34:17.014Z,18.37
2017-10-02T16:36:44.418Z,18.20
2017-10-02T16:39:11.890Z,18.26
2017-10-02T16:41:39.282Z,18.11
2017-10-02T16:44:06.671Z,18.27
2017-10-02T16:46:34.073Z,18.02
2017-10-02T16:49:01.463Z,18.28
2017-10-02T16:51:28.861Z,18.40
2017-10-02T16:53:56.256Z,17.62
2017-10-02T16:56:23.661Z,17.01
2017-10-02T16:58:51.139Z,16.68
2017-10-02T17:01:18.558Z,16.09
2017-10-02T17:03:46.046Z,16.27
2017-10-02T17:06:13.446Z,16.41
2017-10-02T17:08:40.846Z,16.75
2017-10-02T17:11:08.246Z,16.60
2017-10-02T17:13:35.648Z,16.68
2017-10-02T17:16:03.044Z,16.87
2017-10-02T17:18:30.446Z,16.88
2017-10-02T17:20:57.934Z,16.83
2017-10-02T17:23:25.330Z,16.87
2017-10-02T17:25:52.726Z,16.88
2017-10-02T17:28:20.124Z,16.87
2017-10-02T17:30:47.520Z,16.96
2017-10-02T17:33:14.919Z,17.12
2017-10-02T17:35:42.306Z,17.00
2017-10-02T17:38:09.702Z,17.10
2017-10-02T17:40:37.090Z,17.19
2017-10-02T17:43:04.498Z,17.22
2017-10-02T17:45:31.902Z,16.92
2017-10-02T17:47:59.303Z,16.63
2017-10-02T17:50:26.697Z,16.77
2017-10-02T17:52:54.106Z,16.66
2017-10-02T17:55:21.510Z,16.55
2017-10-02T17:57:48.894Z,16.51
2017-10-02T18:00:16.286Z,16.31
2017-10-02T18:02:43.786Z,16.30
2017-10-02T18:05:11.177Z,16.34
2017-10-02T18:07:38.598Z,16.32
2017-10-02T18:10:06.006Z,16.52
2017-10-02T18:12:33.456Z,16.57
2017-10-02T18:15:00.883Z,16.64
2017-10-02T18:17:28.254Z,16.46
2017-10-02T18:19:55.657Z,16.30
2017-10-02T18:22:23.095Z,16.10
2017-10-02T18:24:50.594Z,16.25
2017-10-02T18:27:18.014Z,16.25
2017-10-02T18:29:46.255Z,16.25
2017-10-02T18:32:13.655Z,16.05
2017-10-02T18:34:41.054Z,16.12
2017-10-02T18:37:08.515Z,16.07
2017-10-02T18:39:35.947Z,15.98
2017-10-02T18:42:03.368Z,15.83
2017-10-02T18:44:30.953Z,15.92
2017-10-02T18:46:58.342Z,16.06
2017-10-02T18:49:25.730Z,15.92
2017-10-02T18:51:53.130Z,15.82
2017-10-02T18:54:20.522Z,15.79
2017-10-02T18:56:47.922Z,15.69
2017-10-02T18:59:15.550Z,15.74
2017-10-02T19:01:42.943Z,15.68
2017-10-02T19:04:10.382Z,15.72
2017-10-02T19:06:37.782Z,15.49
2017-10-02T19:09:05.179Z,15.59
2017-10-02T19:11:32.577Z,15.62
2017-10-02T19:13:59.986Z,15.72
2017-10-02T19:16:27.532Z,16.12
2017-10-02T19:18:54.943Z,16.09
2017-10-02T19:21:22.406Z,16.04
2017-10-02T19:23:49.798Z,15.92
2017-10-02T19:26:17.224Z,15.99
2017-10-02T19:28:44.817Z,15.85
2017-10-02T19:31:13.107Z,15.67
2017-10-02T19:33:40.617Z,15.95
2017-10-02T19:36:08.090Z,15.85
2017-10-02T19:38:35.509Z,15.83
2017-10-02T19:41:02.915Z,15.96
2017-10-02T19:43:30.421Z,16.04
2017-10-02T19:45:57.900Z,15.98
2017-10-02T19:48:25.342Z,15.93
2017-10-02T19:50:52.734Z,15.75
2017-10-02T19:53:20.148Z,15.83
2017-10-02T19:55:47.533Z,15.81
2017-10-02T19:58:14.934Z,15.52
2017-10-02T20:00:43.427Z,15.52
2017-10-02T20:03:10.927Z,15.56
2017-10-02T20:05:38.310Z,15.43
2017-10-02T20:08:05.726Z,15.18
2017-10-02T20:10:33.109Z,15.18
2017-10-02T20:13:00.538Z,15.34
2017-10-02T20:15:27.978Z,15.36
2017-10-02T20:17:55.377Z,15.38
2017-10-02T20:20:22.779Z,15.24
2017-10-02T20:22:50.264Z,15.35
2017-10-02T20:25:17.654Z,15.42
2017-10-02T20:27:45.042Z,15.46
2017-10-02T20:30:12.451Z,15.28
2017-10-02T20:32:39.841Z,15.22
2017-10-02T20:35:07.347Z,15.63
2017-10-02T20:37:34.734Z,15.78
2017-10-02T20:40:02.138Z,15.83
2017-10-02T20:42:29.617Z,15.51
2017-10-02T20:44:57.014Z,15.52
2017-10-02T20:47:24.411Z,15.54
2017-10-02T20:49:51.890Z,15.56
2017-10-02T20:52:19.276Z,15.13
2017-10-02T20:54:46.669Z,15.21
2017-10-02T20:57:14.064Z,15.25
2017-10-02T20:59:41.522Z,15.35
2017-10-02T21:02:08.898Z,15.42
2017-10-02T21:04:36.332Z,15.13
2017-10-02T21:07:03.722Z,15.25
2017-10-02T21:09:31.122Z,15.33
2017-10-02T21:11:58.505Z,15.14
2017-10-02T21:14:25.906Z,15.30
2017-10-02T21:16:53.296Z,15.31
2017-10-02T21:19:20.695Z,15.54
2017-10-02T21:21:48.086Z,15.37
2017-10-02T21:24:15.486Z,15.54
2017-10-02T21:26:42.962Z,15.33
2017-10-02T21:29:10.373Z,15.21
2017-10-02T21:31:37.762Z,15.10
2017-10-02T21:34:05.279Z,15.00
2017-10-02T21:36:32.666Z,15.03
2017-10-02T21:39:00.095Z,15.21
2017-10-02T21:41:27.496Z,14.94
2017-10-02T21:43:54.883Z,14.91
2017-10-02T21:46:22.380Z,14.90
2017-10-02T21:48:49.770Z,14.91
2017-10-02T21:51:17.196Z,14.92
2017-10-02T21:53:44.582Z,14.58
2017-10-02T21:56:12.094Z,14.64
2017-10-02T21:58:39.487Z,14.76
2017-10-02T22:01:06.897Z,14.89
2017-10-02T22:03:34.278Z,14.99
2017-10-02T22:06:01.678Z,14.89
2017-10-02T22:08:29.077Z,14.64
2017-10-02T22:10:56.474Z,14.67
2017-10-02T22:13:23.874Z,14.74
2017-10-02T22:15:51.277Z,14.41
2017-10-02T22:18:18.690Z,14.56
2017-10-02T22:20:46.099Z,14.64
2017-10-02T22:23:13.481Z,14.59
2017-10-02T22:25:40.946Z,14.60
2017-10-02T22:28:08.337Z,14.46
2017-10-02T22:30:35.731Z,14.50
2017-10-02T22:33:03.148Z,14.67
2017-10-02T22:35:30.537Z,14.74
2017-10-02T22:37:57.934Z,14.74
2017-10-02T22:40:25.327Z,14.67
2017-10-02T22:42:52.727Z,14.79
2017-10-02T22:45:20.199Z,14.61
2017-10-02T22:47:47.662Z,14.86
2017-10-02T22:50:15.046Z,14.80
2017-10-02T22:52:42.450Z,14.96
2017-10-02T22:55:09.840Z,14.62
2017-10-02T22:57:37.234Z,14.56
2017-10-02T23:00:04.618Z,14.75
2017-10-02T23:02:32.024Z,14.75
2017-10-02T23:04:59.414Z,14.60
2017-10-02T23:07:26.814Z,14.75
2017-10-02T23:09:54.198Z,14.68
2017-10-02T23:12:21.615Z,14.55
2017-10-02T23:14:49.008Z,14.44
2017-10-02T23:17:16.403Z,14.50
2017-10-02T23:19:43.810Z,14.39
2017-10-02T23:22:11.230Z,14.42
2017-10-02T23:24:38.625Z,14.49
2017-10-02T23:27:06.042Z,14.39
2017-10-02T23:29:33.444Z,14.38
2017-10-02T23:32:00.833Z,14.47
2017-10-02T23:34:28.235Z,14.52
2017-10-02T23:36:55.627Z,14.62
2017-10-02T23:39:23.027Z,14.66
2017-10-02T23:41:50.423Z,14.69
2017-10-02T23:44:18.447Z,14.57
2017-10-02T23:46:46.430Z,14.36
2017-10-02T23:49:13.865Z,14.03
2017-10-02T23:51:41.266Z,14.21
2017-10-02T23:54:08.682Z,14.26
2017-10-02T23:56:36.067Z,14.30
2017-10-02T23:59:03.516Z,14.15
